Sand Spring Valley, Nevada Weather observations

Data are for 10 minute period ending at time listed.
 Day   Time   Solar   Ave.   Ave.  Ave.  Vector  Max.   Baro.   Total    
  of    of     Rad.   Air    Rel.  Wind   Wind   Wind  Press.  Precip.   
Year   Day            Temp.  Hum.  Speed  Dir.   Gust                    
2015   (PST)  Kw/m2    F      %     mph   deg.    mph    mb.     in.     
-------------------------------------------------------------------------
  30   18:00   0.00   41.1    93    0.0     0     0.0   848.3    0.02 
  30   18:10   0.00   41.0    93    0.0     0     0.0   848.3    0.00 
  30   18:20   0.00   40.9    93    0.0     0     0.0   848.3    0.01 
  30   18:30   0.00   40.7    93    0.0     0     0.0   848.3    0.01 
  30   18:40   0.00   40.6    93    0.0     0     0.0   848.3    0.00 
  30   18:50   0.00   40.4    94    0.0     0     0.0   848.3    0.01 
  30   19:00   0.00   40.4    94    0.0     0     0.0   848.3    0.01 
  30   19:10   0.00   40.4    94    0.0     0     0.0   848.3    0.00 
  30   19:20   0.00   40.2    94    0.0     0     0.0   848.3    0.01 
  30   19:30   0.00   40.2    94    0.0     0     0.0   848.4    0.01 
  30   19:40   0.00   40.2    94    0.0     0     0.0   848.4    0.01 
  30   19:50   0.00   40.2    94    0.0     0     0.0   848.4    0.01 
  30   20:00   0.00   40.2    94    0.2    38     0.8   848.4    0.01 
  30   20:10   0.00   40.1    94    0.0     0     0.0   848.5    0.01 
  30   20:20   0.00   40.1    94    0.4   262     2.5   848.5    0.00 
  30   20:30   0.00   40.1    94    1.6   259     3.0   848.5    0.00 
  30   20:40   0.00   40.2    94    0.0     0     0.0   848.5    0.00 
  30   20:50   0.00   40.1    94    0.0   340     0.9   848.5    0.00 
  30   21:00   0.00   40.1    93    0.1    71     3.1   848.5    0.01 
  30   21:10   0.00   40.1    93    2.0    70     2.9   848.4    0.01 
  30   21:20   0.00   40.1    93    0.9    60     2.0   848.5    0.00 
  30   21:30   0.00   40.0    93    0.3    62     1.0   848.5    0.01 
  30   21:40   0.00   40.0    93    0.0    56     0.7   848.5    0.01 
  30   21:50   0.00   40.0    93    0.0     0     0.0   848.5    0.00 
  30   22:00   0.00   40.0    92    0.0     0     0.0   848.5    0.01 
  30   22:10   0.00   39.9    92    0.0     0     0.0   848.6    0.01 
  30   22:20   0.00   39.8    93    0.0     0     0.0   848.6    0.00 
  30   22:30   0.00   39.8    93    0.0     0     0.0   848.6    0.01 
  30   22:40   0.00   39.7    93    0.0     0     0.0   848.6    0.01 
  30   22:50   0.00   39.7    93    0.0     0     0.0   848.6    0.00 
  30   23:00   0.00   39.7    93    0.0     0     0.0   848.6    0.01 
  30   23:10   0.00   39.5    93    0.0     0     0.0   848.6    0.00 
  30   23:20   0.00   39.4    94    0.0     0     0.0   848.6    0.01 
  30   23:30   0.00   39.3    94    0.0     0     0.0   848.6    0.00 
  30   23:40   0.00   39.2    94    0.6   191     2.0   848.6    0.00 
  30   23:50   0.00   39.2    94    1.3   192     2.3   848.6    0.00 
  31    0:00   0.00   39.1    94    1.0   193     2.0   848.7    0.00 
  31    0:10   0.00   39.1    94    1.7   192     2.9   848.6    0.00 
  31    0:20   0.00   39.3    94    1.4   178     2.8   848.6    0.00 
  31    0:30   0.00   39.4    94    0.0     0     0.0   848.5    0.00 
  31    0:40   0.00   39.5    93    0.0     0     0.0   848.5    0.00 
  31    0:50   0.00   39.5    93    0.0     0     0.0   848.4    0.00 
  31    1:00   0.00   39.4    93    0.0     0     0.0   848.4    0.00 
  31    1:10   0.00   39.6    92    0.1   319     2.0   848.5    0.00 
  31    1:20   0.00   39.8    91    0.0     0     0.0   848.6    0.00 
  31    1:30   0.00   39.8    90    0.0     0     0.0   848.6    0.00 
  31    1:40   0.00   39.7    90    0.7   308     1.7   848.6    0.00 
  31    1:50   0.00   39.8    89    0.8   290     4.8   848.6    0.00 
  31    2:00   0.00   40.5    86    2.7   352     7.6   848.6    0.00 
  31    2:10   0.00   40.7    84    1.2   349     3.3   848.6    0.00 
  31    2:20   0.00   40.6    84    0.9   317     3.9   848.6    0.00 
  31    2:30   0.00   40.3    85    0.7   311     2.7   848.6    0.00 
  31    2:40   0.00   40.2    86    1.5   354     3.5   848.6    0.00 
  31    2:50   0.00   40.0    87    3.9    26     6.8   848.6    0.00 
  31    3:00   0.00   39.7    88    5.6    17     9.2   848.6    0.00 
  31    3:10   0.00   39.7    88    4.4     9     6.2   848.6    0.00 
  31    3:20   0.00   39.7    87    4.6   351     6.6   848.6    0.00 
  31    3:30   0.00   39.9    86    5.7   354     9.1   848.6    0.00 
  31    3:40   0.00   39.9    86    3.6     6     6.4   848.5    0.00 
  31    3:50   0.00   39.7    87    1.1   346     3.1   848.6    0.00 
  31    4:00   0.00   39.5    88    1.7   350     5.3   848.7    0.00 
  31    4:10   0.00   39.7    87    4.8   350     7.5   848.7    0.00 
  31    4:20   0.00   39.6    87    3.1    10     5.4   848.7    0.00 
  31    4:30   0.00   39.6    87    3.7    21     6.3   848.9    0.00 
  31    4:40   0.00   39.5    88    3.2    24     5.0   848.9    0.00 
  31    4:50   0.00   39.3    88    2.8    26     4.5   848.9    0.00 
  31    5:00   0.00   39.3    87    0.7    22     2.8   848.9    0.00 
  31    5:10   0.00   39.1    87    1.6   336     4.5   849.0    0.00 
  31    5:20   0.00   39.1    86    1.6   329     3.5   849.1    0.00 
  31    5:30   0.00   39.0    86    0.0     0     0.0   849.2    0.00 
  31    5:40   0.00   38.9    86    0.0   333     0.4   849.3    0.00 
  31    5:50   0.00   38.7    86    1.0   294     3.3   849.4    0.00 
  31    6:00   0.00   38.5    86    0.4   294     2.6   849.5    0.00 
  31    6:10   0.00   38.9    86    1.9   321     5.6   849.6    0.00 
  31    6:20   0.00   38.7    86    1.4   301     3.6   849.8    0.00 
  31    6:30   0.00   38.6    87    0.0     0     0.0   850.0    0.00 
  31    6:40   0.00   38.4    87    0.0     0     0.0   850.0    0.00 
  31    6:50   0.00   38.2    88    0.4   287     1.5   850.2    0.00 
  31    7:00   0.00   38.3    87    1.1   151     4.2   850.3    0.00 
  31    7:10   0.01   38.9    84    1.2    33     3.3   850.4    0.00 
  31    7:20   0.01   39.1    84    1.7    21     5.3   850.5    0.00 
  31    7:30   0.01   38.8    87    2.7    24     6.5   850.7    0.00 
  31    7:40   0.01   38.9    87    2.4    26     4.2   850.9    0.00 
  31    7:50   0.01   38.9    87    2.0    18     3.7   851.0    0.00 
  31    8:00   0.02   38.9    87    0.5    34     1.4   851.1    0.01 
  31    8:10   0.04   38.9    87    0.5    20     2.2   851.2    0.00 
  31    8:20   0.04   39.2    87    0.5   348     3.4   851.4    0.01 
  31    8:30   0.05   39.3    86    4.7   340     7.2   851.5    0.00 
  31    8:40   0.06   39.5    84    5.6   336     7.8   851.6    0.01 
  31    8:50   0.06   39.6    86    5.0   344     8.7   851.7    0.00 
  31    9:00   0.07   39.6    86    5.8   346     8.6   851.8    0.01 
  31    9:10   0.08   39.8    86    5.0   337     7.2   852.0    0.00 
  31    9:20   0.11   39.9    84    4.6   336     6.8   852.0    0.00 
  31    9:30   0.10   40.1    84    4.9   328     7.5   852.2    0.00 
  31    9:40   0.03   40.5    84    4.7   338     8.3   852.2    0.00 
  31    9:50   0.03   41.1    81    3.6   345     5.4   852.2    0.00 
  31   10:00   0.04   41.3    78    2.8     5     4.8   852.2    0.00 
  31   10:10   0.04   42.0    77    1.2    34     3.3   852.3    0.00 
  31   10:20   0.04   42.3    75    0.6    63     3.1   852.3    0.00 
  31   10:30   0.06   43.5    74    0.3    93     2.0   852.3    0.00 
  31   10:40   0.07   42.9    75    3.1   166     5.1   852.1    0.00 
  31   10:50   0.08   42.8    77    3.3   194     5.5   852.1    0.00 
  31   11:00   0.04   43.7    74    2.3   184     5.1   852.1    0.00 
  31   11:10   0.04   45.0    73    2.6   196     5.0   852.1    0.00 
  31   11:20   0.04   45.8    70    1.9   190     5.3   852.1    0.00 
  31   11:30   0.05   46.2    70    2.4   182     4.8   851.9    0.00 
  31   11:40   0.05   45.8    72    2.7   169     5.0   851.8    0.00 
  31   11:50   0.06   46.1    73    4.1   166     6.7   851.7    0.00 
  31   12:00   0.07   46.8    69    1.9   222     6.0   851.6    0.00 
  31   12:10   0.19   47.6    69    1.9   249     5.4   851.6    0.00 
  31   12:20   0.23   48.3    67    2.5   223     6.3   851.5    0.00 
  31   12:30   0.25   48.9    66    3.4   252     6.6   851.5    0.00 
  31   12:40   0.11   49.2    65    1.7    80     4.2   851.3    0.00 
  31   12:50   0.18   49.7    64    2.9   146     6.1   851.2    0.00 
  31   13:00   0.23   49.9    63    2.8    83     6.6   851.2    0.00 
  31   13:10   0.25   50.1    64    3.0    22     7.2   851.1    0.00 
  31   13:20   0.27   50.5    61    2.7    29     6.0   851.1    0.00 
  31   13:30   0.37   50.7    60    3.9    33     7.1   851.1    0.00 
  31   13:40   0.38   51.4    58    1.9   333     6.1   851.1    0.00 
  31   13:50   0.46   51.8    60    2.8     1     6.8   851.1    0.00 
  31   14:00   0.36   52.2    57    3.3    70     8.0   851.0    0.00 
  31   14:10   0.36   52.0    57    3.2    29     7.3   851.0    0.00 
  31   14:20   0.20   52.3    55    2.6    35     5.7   850.9    0.00 
  31   14:30   0.39   52.6    54    2.3    16     6.3   850.8    0.00 
  31   14:40   0.38   52.7    55    3.3    22     6.6   850.8    0.00 
  31   14:50   0.36   53.0    54    2.6    43     5.6   850.9    0.00 
  31   15:00   0.33   53.2    55    4.0    32     7.1   851.0    0.00 
  31   15:10   0.27   53.2    54    2.1    10     4.5   851.0    0.00 
  31   15:20   0.28   53.7    52    1.8    41     4.4   851.1    0.00 
  31   15:30   0.23   54.3    50    2.1   284     4.2   851.1    0.00 
  31   15:40   0.20   54.6    50    2.1   260     6.5   851.1    0.00 
  31   15:50   0.22   54.5    49    4.7   275    10.2   851.2    0.00 
  31   16:00   0.17   53.8    49    3.9   276     7.2   851.2    0.00 
  31   16:10   0.07   52.8    52    4.9   298     8.2   851.2    0.00 
  31   16:20   0.12   53.0    54    3.0   284     4.7   851.1    0.00 
  31   16:30   0.10   53.5    53    2.1   256     3.4   851.2    0.00 
  31   16:40   0.08   53.7    52    1.5   242     2.7   851.2    0.00 
  31   16:50   0.06   53.9    50    2.5   211     2.8   851.3    0.00 
  31   17:00   0.03   52.3    54    1.7   226     2.9   851.4    0.00 
  31   17:10   0.01   50.5    57    3.1   290     6.5   851.6    0.00 
  31   17:20   0.00   49.0    62    5.7   353    11.2   851.7    0.00 
  31   17:30   0.00   48.3    54    5.4   352     9.2   851.8    0.00 
  31   17:40   0.00   48.0    50    5.6   342     8.8   851.9    0.00 
  31   17:50   0.00   47.6    50    6.3   332    10.4   852.2    0.00 

Return to Sand Spring Valley graphs page.


Western Regional Climate Center,wrcc@dri.edu